Time,TemperatureF,DewpointF,PressureIn,WindDirection,WindDirectionDegrees,WindSpeedMPH,WindSpeedGustMPH,Humidity,HourlyPrecipIn,Conditions,Clouds,dailyrainin,SolarRadiationWatts/m^2,SoftwareType,DateUTC
2013-04-18 00:03:00,29.0,24.0,-100.00,NE,51,1.0,3.0,80,0.00,,,0.00,0.000000,,2013-04-18 04:03:00,
2013-04-18 00:10:00,29.0,25.0,-100.00,ESE,117,1.0,2.0,84,0.00,,,0.00,0.000000,,2013-04-18 04:10:00,
2013-04-18 00:43:00,29.0,25.0,-100.00,ESE,117,1.0,2.0,84,0.00,,,0.00,0.000000,,2013-04-18 04:43:00,
2013-04-18 00:53:00,29.0,25.0,-100.00,ESE,117,1.0,2.0,84,0.00,,,0.00,0.000000,,2013-04-18 04:53:00,
2013-04-18 01:02:00,29.0,25.0,-100.00,ESE,117,1.0,2.0,84,0.00,,,0.00,0.000000,,2013-04-18 05:02:00,
2013-04-18 01:10:00,28.0,24.0,-100.00,ENE,77,1.0,3.0,85,0.00,,,0.00,0.000000,,2013-04-18 05:10:00,
2013-04-18 01:33:00,28.0,24.0,-100.00,ENE,77,1.0,3.0,85,0.00,,,0.00,0.000000,,2013-04-18 05:33:00,
2013-04-18 01:42:00,28.0,24.0,-100.00,ENE,77,1.0,3.0,85,0.00,,,0.00,0.000000,,2013-04-18 05:42:00,
2013-04-18 01:52:00,28.0,24.0,-100.00,ENE,77,1.0,3.0,85,0.00,,,0.00,0.000000,,2013-04-18 05:52:00,
2013-04-18 02:02:00,28.0,24.0,-100.00,ENE,77,1.0,3.0,85,0.00,,,0.00,0.000000,,2013-04-18 06:02:00,
2013-04-18 02:10:00,27.0,23.0,-100.00,North,359,1.0,2.0,86,0.00,,,0.00,0.000000,,2013-04-18 06:10:00,
2013-04-18 02:32:00,27.0,23.0,-100.00,North,359,1.0,2.0,86,0.00,,,0.00,0.000000,,2013-04-18 06:32:00,
2013-04-18 02:42:00,27.0,23.0,-100.00,North,359,1.0,2.0,86,0.00,,,0.00,0.000000,,2013-04-18 06:42:00,
2013-04-18 02:52:00,27.0,23.0,-100.00,North,359,1.0,2.0,86,0.00,,,0.00,0.000000,,2013-04-18 06:52:00,
2013-04-18 03:02:00,27.0,23.0,-100.00,North,359,1.0,2.0,86,0.00,,,0.00,0.000000,,2013-04-18 07:02:00,
2013-04-18 03:10:00,26.0,23.0,-100.00,ESE,114,1.0,2.0,88,0.00,,,0.00,0.000000,,2013-04-18 07:10:00,
2013-04-18 03:42:00,26.0,23.0,-100.00,ESE,114,1.0,2.0,88,0.00,,,0.00,0.000000,,2013-04-18 07:42:00,
2013-04-18 03:53:00,26.0,23.0,-100.00,ESE,114,1.0,2.0,88,0.00,,,0.00,0.000000,,2013-04-18 07:53:00,
2013-04-18 04:02:00,26.0,23.0,-100.00,ESE,114,1.0,2.0,88,0.00,,,0.00,0.000000,,2013-04-18 08:02:00,
2013-04-18 04:10:00,26.0,23.0,-100.00,East,101,1.0,2.0,89,0.00,,,0.00,0.000000,,2013-04-18 08:10:00,
2013-04-18 04:32:00,26.0,23.0,-100.00,East,101,1.0,2.0,89,0.00,,,0.00,0.000000,,2013-04-18 08:32:00,
2013-04-18 04:42:00,26.0,23.0,-100.00,East,101,1.0,2.0,89,0.00,,,0.00,0.000000,,2013-04-18 08:42:00,
2013-04-18 04:52:00,26.0,23.0,-100.00,East,101,1.0,2.0,89,0.00,,,0.00,0.000000,,2013-04-18 08:52:00,
2013-04-18 05:02:00,26.0,23.0,-100.00,East,101,1.0,2.0,89,0.00,,,0.00,0.000000,,2013-04-18 09:02:00,
2013-04-18 05:10:00,26.0,23.0,-100.00,East,100,1.0,2.0,89,0.00,,,0.00,0.000000,,2013-04-18 09:10:00,
2013-04-18 05:33:00,26.0,23.0,-100.00,East,100,1.0,2.0,89,0.00,,,0.00,0.000000,,2013-04-18 09:33:00,
2013-04-18 05:43:00,26.0,23.0,-100.00,East,100,1.0,2.0,89,0.00,,,0.00,0.000000,,2013-04-18 09:43:00,
2013-04-18 05:53:00,26.0,23.0,-100.00,East,100,1.0,2.0,89,0.00,,,0.00,0.000000,,2013-04-18 09:53:00,
2013-04-18 06:03:00,26.0,23.0,-100.00,East,100,1.0,2.0,89,0.00,,,0.00,0.000000,,2013-04-18 10:03:00,
2013-04-18 06:10:00,27.0,24.0,-100.00,ENE,76,1.0,3.0,89,0.00,,,0.00,2.000000,,2013-04-18 10:10:00,
2013-04-18 06:33:00,27.0,24.0,-100.00,ENE,76,1.0,3.0,89,0.00,,,0.00,2.000000,,2013-04-18 10:33:00,
2013-04-18 06:42:00,27.0,24.0,-100.00,ENE,76,1.0,3.0,89,0.00,,,0.00,2.000000,,2013-04-18 10:42:00,
2013-04-18 06:53:00,27.0,24.0,-100.00,ENE,76,1.0,3.0,89,0.00,,,0.00,2.000000,,2013-04-18 10:53:00,
2013-04-18 07:03:00,27.0,24.0,-100.00,ENE,76,1.0,3.0,89,0.00,,,0.00,2.000000,,2013-04-18 11:03:00,
2013-04-18 07:10:00,29.0,26.0,-100.00,SSE,165,1.0,3.0,89,0.00,,,0.00,35.000000,,2013-04-18 11:10:00,
2013-04-18 07:32:00,29.0,26.0,-100.00,SSE,165,1.0,3.0,89,0.00,,,0.00,35.000000,,2013-04-18 11:32:00,
2013-04-18 07:42:00,29.0,26.0,-100.00,SSE,165,1.0,3.0,89,0.00,,,0.00,35.000000,,2013-04-18 11:42:00,
2013-04-18 07:52:00,29.0,26.0,-100.00,SSE,165,1.0,3.0,89,0.00,,,0.00,35.000000,,2013-04-18 11:52:00,
2013-04-18 08:02:00,29.0,26.0,-100.00,SSE,165,1.0,3.0,89,0.00,,,0.00,35.000000,,2013-04-18 12:02:00,
2013-04-18 08:10:00,33.0,28.0,-100.00,South,181,1.0,3.0,83,0.00,,,0.00,57.000000,,2013-04-18 12:10:00,
2013-04-18 08:32:00,33.0,28.0,-100.00,South,181,1.0,3.0,83,0.00,,,0.00,57.000000,,2013-04-18 12:32:00,
2013-04-18 08:42:00,33.0,28.0,-100.00,South,181,1.0,3.0,83,0.00,,,0.00,57.000000,,2013-04-18 12:42:00,
2013-04-18 08:53:00,33.0,28.0,-100.00,South,181,1.0,3.0,83,0.00,,,0.00,57.000000,,2013-04-18 12:53:00,
2013-04-18 09:03:00,33.0,28.0,-100.00,South,181,1.0,3.0,83,0.00,,,0.00,57.000000,,2013-04-18 13:03:00,
2013-04-18 09:10:00,38.0,27.0,-100.00,NE,43,1.0,2.0,63,0.00,,,0.00,118.000000,,2013-04-18 13:10:00,
2013-04-18 09:33:00,38.0,27.0,-100.00,NE,43,1.0,2.0,63,0.00,,,0.00,118.000000,,2013-04-18 13:33:00,
2013-04-18 09:43:00,38.0,27.0,-100.00,NE,43,1.0,2.0,63,0.00,,,0.00,118.000000,,2013-04-18 13:43:00,
2013-04-18 09:53:00,38.0,27.0,-100.00,NE,43,1.0,2.0,63,0.00,,,0.00,118.000000,,2013-04-18 13:53:00,
2013-04-18 10:03:00,38.0,27.0,-100.00,NE,43,1.0,2.0,63,0.00,,,0.00,118.000000,,2013-04-18 14:03:00,
2013-04-18 10:10:00,43.0,28.0,-100.00,NW,325,1.0,3.0,56,0.00,,,0.00,174.000000,,2013-04-18 14:10:00,
2013-04-18 10:33:00,43.0,28.0,-100.00,NW,325,1.0,3.0,56,0.00,,,0.00,174.000000,,2013-04-18 14:33:00,
2013-04-18 10:43:00,43.0,28.0,-100.00,NW,325,1.0,3.0,56,0.00,,,0.00,174.000000,,2013-04-18 14:43:00,
2013-04-18 10:52:00,43.0,28.0,-100.00,NW,325,1.0,3.0,56,0.00,,,0.00,174.000000,,2013-04-18 14:52:00,
2013-04-18 11:03:00,43.0,28.0,-100.00,NW,325,1.0,3.0,56,0.00,,,0.00,174.000000,,2013-04-18 15:03:00,
2013-04-18 11:10:00,49.0,29.0,-100.00,NNW,335,1.0,3.0,46,0.00,,,0.00,263.000000,,2013-04-18 15:10:00,
2013-04-18 11:33:00,49.0,29.0,-100.00,NNW,335,1.0,3.0,46,0.00,,,0.00,263.000000,,2013-04-18 15:33:00,
2013-04-18 11:43:00,49.0,29.0,-100.00,NNW,335,1.0,3.0,46,0.00,,,0.00,263.000000,,2013-04-18 15:43:00,
2013-04-18 11:53:00,49.0,29.0,-100.00,NNW,335,1.0,3.0,46,0.00,,,0.00,263.000000,,2013-04-18 15:53:00,
2013-04-18 12:03:00,49.0,29.0,-100.00,NNW,335,1.0,3.0,46,0.00,,,0.00,263.000000,,2013-04-18 16:03:00,
2013-04-18 12:10:00,46.0,28.0,-100.00,East,82,2.0,5.0,49,0.00,,,0.00,61.000000,,2013-04-18 16:10:00,
2013-04-18 12:33:00,46.0,28.0,-100.00,East,82,2.0,5.0,49,0.00,,,0.00,61.000000,,2013-04-18 16:33:00,
2013-04-18 12:43:00,46.0,28.0,-100.00,East,82,2.0,5.0,49,0.00,,,0.00,61.000000,,2013-04-18 16:43:00,
2013-04-18 12:53:00,46.0,28.0,-100.00,East,82,2.0,5.0,49,0.00,,,0.00,61.000000,,2013-04-18 16:53:00,
2013-04-18 13:03:00,46.0,28.0,-100.00,East,82,2.0,5.0,49,0.00,,,0.00,61.000000,,2013-04-18 17:03:00,
2013-04-18 13:10:00,48.0,30.0,-100.00,East,82,2.0,8.0,50,0.00,,,0.00,129.000000,,2013-04-18 17:10:00,
2013-04-18 13:43:00,48.0,30.0,-100.00,East,82,2.0,8.0,50,0.00,,,0.00,129.000000,,2013-04-18 17:43:00,
2013-04-18 13:52:00,48.0,30.0,-100.00,East,82,2.0,8.0,50,0.00,,,0.00,129.000000,,2013-04-18 17:52:00,
2013-04-18 14:03:00,48.0,30.0,-100.00,East,82,2.0,8.0,50,0.00,,,0.00,129.000000,,2013-04-18 18:03:00,
2013-04-18 14:10:00,46.0,30.0,-100.00,ESE,110,3.0,7.0,54,0.01,,,0.01,76.000000,,2013-04-18 18:10:00,
2013-04-18 14:43:00,46.0,30.0,-100.00,ESE,110,3.0,7.0,54,0.01,,,0.01,76.000000,,2013-04-18 18:43:00,
2013-04-18 14:53:00,46.0,30.0,-100.00,ESE,110,3.0,7.0,54,0.01,,,0.01,76.000000,,2013-04-18 18:53:00,
2013-04-18 15:03:00,46.0,30.0,-100.00,ESE,110,3.0,7.0,54,0.01,,,0.01,76.000000,,2013-04-18 19:03:00,
2013-04-18 15:10:00,49.0,43.0,-100.00,WSW,256,2.0,8.0,80,0.01,,,0.02,163.000000,,2013-04-18 19:10:00,
2013-04-18 15:33:00,49.0,43.0,-100.00,WSW,256,2.0,8.0,80,0.01,,,0.02,163.000000,,2013-04-18 19:33:00,
2013-04-18 15:43:00,49.0,43.0,-100.00,WSW,256,2.0,8.0,80,0.01,,,0.02,163.000000,,2013-04-18 19:43:00,
2013-04-18 15:53:00,49.0,43.0,-100.00,WSW,256,2.0,8.0,80,0.01,,,0.02,163.000000,,2013-04-18 19:53:00,
2013-04-18 16:03:00,49.0,43.0,-100.00,WSW,256,2.0,8.0,80,0.01,,,0.02,163.000000,,2013-04-18 20:03:00,
2013-04-18 16:10:00,57.0,36.0,-100.00,ESE,110,4.0,8.0,45,0.00,,,0.02,280.000000,,2013-04-18 20:10:00,
2013-04-18 16:43:00,57.0,36.0,-100.00,ESE,110,4.0,8.0,45,0.00,,,0.02,280.000000,,2013-04-18 20:43:00,
2013-04-18 16:52:00,57.0,36.0,-100.00,ESE,110,4.0,8.0,45,0.00,,,0.02,280.000000,,2013-04-18 20:52:00,
2013-04-18 17:03:00,57.0,36.0,-100.00,ESE,110,4.0,8.0,45,0.00,,,0.02,280.000000,,2013-04-18 21:03:00,
2013-04-18 18:10:00,53.0,32.0,-100.00,ESE,105,3.0,12.0,45,-99.99,,,0.02,70.000000,,2013-04-18 22:10:00,
2013-04-18 18:42:00,53.0,32.0,-100.00,ESE,105,3.0,12.0,45,-99.99,,,0.02,70.000000,,2013-04-18 22:42:00,
2013-04-18 18:53:00,53.0,32.0,-100.00,ESE,105,3.0,12.0,45,-99.99,,,0.02,70.000000,,2013-04-18 22:53:00,
2013-04-18 19:04:00,53.0,32.0,-100.00,ESE,105,3.0,12.0,45,-99.99,,,0.02,70.000000,,2013-04-18 23:04:00,
2013-04-18 19:10:00,52.0,31.0,-100.00,East,95,2.0,9.0,44,0.00,,,0.02,23.000000,,2013-04-18 23:10:00,
2013-04-18 19:32:00,52.0,31.0,-100.00,East,95,2.0,9.0,44,0.00,,,0.02,23.000000,,2013-04-18 23:32:00,
2013-04-18 19:42:00,52.0,31.0,-100.00,East,95,2.0,9.0,44,0.00,,,0.02,23.000000,,2013-04-18 23:42:00,
2013-04-18 19:52:00,52.0,31.0,-100.00,East,95,2.0,9.0,44,0.00,,,0.02,23.000000,,2013-04-18 23:52:00,
2013-04-18 20:01:00,52.0,31.0,-100.00,East,95,2.0,9.0,44,0.00,,,0.02,23.000000,,2013-04-19 00:01:00,
2013-04-18 21:10:00,52.0,34.0,-100.00,ENE,68,3.0,6.0,50,-99.99,,,0.02,0.000000,,2013-04-19 01:10:00,
2013-04-18 21:42:00,52.0,34.0,-100.00,ENE,68,3.0,6.0,50,-99.99,,,0.02,0.000000,,2013-04-19 01:42:00,
2013-04-18 21:52:00,52.0,34.0,-100.00,ENE,68,3.0,6.0,50,-99.99,,,0.02,0.000000,,2013-04-19 01:52:00,
2013-04-18 22:02:00,52.0,34.0,-100.00,ENE,68,3.0,6.0,50,-99.99,,,0.02,0.000000,,2013-04-19 02:02:00,
2013-04-18 22:10:00,51.0,34.0,-100.00,East,92,3.0,5.0,53,0.00,,,0.02,0.000000,,2013-04-19 02:10:00,
2013-04-18 22:32:00,51.0,34.0,-100.00,East,92,3.0,5.0,53,0.00,,,0.02,0.000000,,2013-04-19 02:32:00,
2013-04-18 22:42:00,51.0,34.0,-100.00,East,92,3.0,5.0,53,0.00,,,0.02,0.000000,,2013-04-19 02:42:00,
2013-04-18 22:52:00,51.0,34.0,-100.00,East,92,3.0,5.0,53,0.00,,,0.02,0.000000,,2013-04-19 02:52:00,
2013-04-18 23:01:00,51.0,34.0,-100.00,East,92,3.0,5.0,53,0.00,,,0.02,0.000000,,2013-04-19 03:01:00,
2013-04-18 23:10:00,50.0,34.0,-100.00,ESE,115,2.0,5.0,55,0.00,,,0.02,0.000000,,2013-04-19 03:10:00,
2013-04-18 23:43:00,50.0,34.0,-100.00,ESE,115,2.0,5.0,55,0.00,,,0.02,0.000000,,2013-04-19 03:43:00,
2013-04-18 23:53:00,50.0,34.0,-100.00,ESE,115,2.0,5.0,55,0.00,,,0.02,0.000000,,2013-04-19 03:53:00,